Time;durP1;ratioP1;P1;durP2;ratioP2;P2;SDS_P1;SDS_P2;PMS_P1;PMS_P2;Temp;Humidity;BMP_temperature;BMP_pressure;BME280_temperature;BME280_humidity;BME280_pressure;Samples;Min_cycle;Max_cycle;Signal;HPM_P1;HPM_P2
2023/10/15 00:00:51;;;;;;;7.80;2.90;;;10.30;83.50;;;11.97;58.66;101302.41;3082233;46;20490;-69
2023/10/15 00:03:20;;;;;;;6.33;2.37;;;10.30;83.40;;;12.01;58.90;101291.31;3081941;46;20579;-67
2023/10/15 00:05:49;;;;;;;6.40;2.23;;;10.40;83.80;;;12.08;58.72;101300.22;3082376;46;20483;-68
2023/10/15 00:08:17;;;;;;;8.40;2.40;;;10.40;83.80;;;12.14;58.30;101299.53;3081903;46;21014;-67
2023/10/15 00:10:46;;;;;;;4.03;2.37;;;10.50;83.00;;;12.15;58.21;101303.81;3081964;46;20439;-67
2023/10/15 00:13:14;;;;;;;4.27;2.17;;;10.50;82.70;;;12.15;57.98;101303.81;3082217;46;20517;-67
2023/10/15 00:15:43;;;;;;;7.30;2.47;;;10.50;82.40;;;12.14;57.83;101307.47;3081442;46;20431;-67
2023/10/15 00:18:13;;;;;;;4.93;1.80;;;10.50;82.10;;;12.13;57.96;101304.97;3082718;46;20438;-68
2023/10/15 00:20:41;;;;;;;4.60;1.70;;;10.50;82.40;;;12.15;57.99;101302.97;3081765;46;20586;-71
2023/10/15 00:23:10;;;;;;;7.77;2.07;;;10.60;82.70;;;12.18;58.05;101308.75;3081019;46;20428;-67
2023/10/15 00:25:42;;;;;;;4.20;2.13;;;10.60;82.90;;;12.20;57.90;101306.75;3082159;46;20435;-67
2023/10/15 00:28:15;;;;;;;9.67;2.23;;;10.60;82.70;;;12.23;58.05;101316.16;3081699;46;21031;-67
2023/10/15 00:30:44;;;;;;;7.93;2.57;;;10.70;82.50;;;12.22;57.62;101303.94;3082037;46;20464;-67
2023/10/15 00:33:12;;;;;;;10.83;2.10;;;10.70;81.90;;;12.17;57.39;101312.38;3082304;46;20665;-68
2023/10/15 00:35:49;;;;;;;3.60;1.93;;;10.60;81.20;;;12.15;57.73;101309.09;3081962;46;20432;-68
2023/10/15 00:38:19;;;;;;;6.80;2.10;;;10.60;81.50;;;12.17;57.70;101322.13;3082028;46;20443;-68
2023/10/15 00:40:53;;;;;;;12.17;3.10;;;10.60;81.70;;;12.17;57.58;101315.00;3081658;46;20443;-67
2023/10/15 00:43:22;;;;;;;4.63;2.30;;;10.60;81.50;;;12.18;57.41;101318.47;3081672;46;20506;-68
2023/10/15 00:45:51;;;;;;;4.77;1.83;;;10.60;81.20;;;12.16;57.19;101305.47;3082213;46;20500;-67
2023/10/15 00:48:36;;;;;;;10.07;2.67;;;10.60;80.80;;;12.12;57.24;101298.88;3081491;46;20995;-69
2023/10/15 00:51:11;;;;;;;7.00;2.27;;;10.60;81.00;;;12.10;57.13;101295.56;3081886;46;21013;-67
2023/10/15 00:53:50;;;;;;;3.87;1.83;;;10.60;80.80;;;12.06;56.96;101296.91;3081912;46;20466;-65
2023/10/15 00:56:25;;;;;;;5.73;1.93;;;10.50;80.90;;;12.07;56.96;101305.66;3081889;46;21155;-67
2023/10/15 00:59:18;;;;;;;11.17;2.53;;;10.50;80.50;;;12.05;56.79;101295.25;3080881;46;21014;-67
2023/10/15 01:04:25;;;;;;;8.03;2.50;;;10.50;79.70;;;11.91;56.42;101306.53;3081302;46;20423;-66
2023/10/15 01:06:59;;;;;;;6.43;2.70;;;10.40;79.60;;;11.87;56.30;101294.66;3082082;46;21029;-67
2023/10/15 01:09:29;;;;;;;5.50;2.13;;;10.40;79.50;;;11.82;56.72;101291.72;3081428;46;20480;-67
2023/10/15 01:14:46;;;;;;;6.10;2.57;;;10.30;80.10;;;11.79;56.53;101292.03;3081097;46;20466;-65
2023/10/15 01:17:14;;;;;;;4.90;2.10;;;10.20;79.70;;;11.77;56.42;101299.31;3081189;46;21068;-67
2023/10/15 01:19:43;;;;;;;6.37;2.67;;;10.20;79.70;;;11.75;56.43;101306.56;3081330;46;20585;-67
2023/10/15 01:22:17;;;;;;;6.67;2.00;;;10.20;79.70;;;11.72;56.35;101312.16;3081476;46;20428;-67
2023/10/15 01:24:53;;;;;;;8.30;1.73;;;10.10;79.80;;;11.70;56.47;101300.97;3081542;46;20503;-68
2023/10/15 01:27:29;;;;;;;7.23;2.27;;;10.10;80.00;;;11.67;56.40;101298.63;3080046;46;21060;-65
2023/10/15 01:29:59;;;;;;;6.37;2.47;;;10.10;80.00;;;11.67;56.55;101313.66;3080743;46;20464;-66
2023/10/15 01:32:30;;;;;;;7.27;2.00;;;10.10;80.20;;;11.68;56.55;101347.78;3079907;46;20468;-67
2023/10/15 01:35:00;;;;;;;4.07;2.00;;;10.10;80.20;;;11.71;56.54;101347.44;3081109;46;20455;-67
2023/10/15 01:37:30;;;;;;;5.87;1.73;;;10.00;80.50;;;11.76;56.92;101360.97;3081437;46;20456;-68
2023/10/15 01:40:24;;;;;;;6.63;1.93;;;10.00;80.90;;;11.80;56.86;101362.28;3081154;46;20463;-67
2023/10/15 01:42:54;;;;;;;8.07;2.77;;;10.10;82.20;;;11.82;57.08;101370.00;3081480;46;20440;-68
2023/10/15 01:45:31;;;;;;;7.63;2.30;;;10.10;82.00;;;11.83;57.64;101361.94;3081526;46;20431;-68
2023/10/15 01:48:46;;;;;;;5.60;1.50;;;10.10;83.70;;;11.83;58.40;101345.28;3080692;46;20431;-67
2023/10/15 01:50:51;;;;;;;5.87;1.90;;;10.10;84.40;;;11.83;58.49;101335.56;3080541;46;20593;-67
2023/10/15 01:53:23;;;;;;;5.20;1.40;;;10.10;84.30;;;11.81;58.61;101342.84;3081311;46;20431;-67
2023/10/15 01:55:59;;;;;;;4.23;1.47;;;10.10;84.40;;;11.79;58.99;101344.78;3081342;46;20553;-67
2023/10/15 01:58:31;;;;;;;8.70;1.97;;;10.10;84.80;;;11.80;59.14;101343.81;3081179;46;20465;-67
2023/10/15 02:01:31;;;;;;;6.10;1.50;;;10.10;84.90;;;11.80;59.21;101340.34;3080686;46;20565;-67
2023/10/15 02:03:59;;;;;;;3.70;1.47;;;10.10;84.90;;;11.78;59.36;101335.25;3080279;46;20450;-67
2023/10/15 02:06:30;;;;;;;5.77;1.40;;;10.10;84.80;;;11.75;59.33;101325.03;3080865;46;20489;-67
2023/10/15 02:08:59;;;;;;;3.83;2.07;;;10.10;84.70;;;11.74;59.39;101319.94;3080906;46;20427;-67
2023/10/15 02:11:27;;;;;;;5.87;1.77;;;10.10;84.90;;;11.73;59.41;101323.53;3080888;46;21048;-67
2023/10/15 02:13:56;;;;;;;8.20;1.90;;;10.10;84.70;;;11.71;59.52;101326.34;3080754;46;20545;-67
2023/10/15 02:16:30;;;;;;;5.27;2.40;;;10.10;84.70;;;11.70;59.50;101324.69;3080912;46;21133;-67
2023/10/15 02:18:58;;;;;;;8.67;2.73;;;10.10;84.70;;;11.69;59.83;101327.50;3080684;46;20476;-68
2023/10/15 02:21:31;;;;;;;5.17;1.80;;;10.10;84.90;;;11.71;59.78;101336.91;3080625;46;20565;-67
2023/10/15 02:24:08;;;;;;;5.77;1.80;;;10.10;85.10;;;11.73;59.52;101334.91;3080790;46;20459;-67
2023/10/15 02:26:36;;;;;;;5.57;1.77;;;10.10;84.80;;;11.73;59.49;101347.28;3080886;46;20428;-67
2023/10/15 02:29:27;;;;;;;6.47;2.00;;;10.10;84.70;;;11.73;59.30;101345.47;3080363;46;20493;-67
2023/10/15 02:31:58;;;;;;;11.23;2.70;;;10.10;84.60;;;11.71;59.29;101347.44;3080641;46;20459;-67
2023/10/15 02:34:27;;;;;;;9.20;2.13;;;10.10;84.50;;;11.69;59.16;101354.72;3081040;46;20453;-67
2023/10/15 02:37:04;;;;;;;6.67;1.57;;;10.10;84.50;;;11.70;59.32;101352.88;3080703;46;21011;-66
2023/10/15 02:39:38;;;;;;;7.30;2.13;;;10.00;84.70;;;11.69;59.33;101360.00;3082010;46;20442;-67
2023/10/15 02:42:06;;;;;;;6.70;1.70;;;10.00;85.00;;;11.69;59.35;101349.44;3083453;46;20444;-68
2023/10/15 02:44:38;;;;;;;5.73;2.40;;;10.00;85.40;;;11.68;59.44;101349.59;3083287;46;20499;-67
2023/10/15 02:47:07;;;;;;;4.03;1.80;;;10.00;85.70;;;11.68;59.68;101320.59;3082982;46;20989;-67
2023/10/15 02:52:24;;;;;;;7.37;2.70;;;9.90;86.60;;;11.59;59.74;101319.75;3082944;46;20436;-66
2023/10/15 02:54:53;;;;;;;9.10;3.47;;;9.90;86.70;;;11.52;59.94;101305.59;3083321;46;20446;-67
2023/10/15 02:57:21;;;;;;;10.87;3.17;;;9.90;86.90;;;11.46;60.25;101307.06;3082573;46;21194;-68
2023/10/15 02:59:53;;;;;;;11.30;3.13;;;9.80;86.90;;;11.43;60.00;101307.38;3082921;46;20442;-66
2023/10/15 03:02:24;;;;;;;11.27;3.00;;;9.80;87.30;;;11.43;60.18;101311.88;3083096;46;20435;-67
2023/10/15 03:04:55;;;;;;;5.43;2.70;;;9.80;87.40;;;11.42;60.45;101315.47;3082748;46;20483;-68
2023/10/15 03:07:30;;;;;;;7.03;2.13;;;9.80;87.50;;;11.41;60.30;101313.84;3082959;46;20434;-67
2023/10/15 03:09:58;;;;;;;6.50;2.23;;;9.70;87.80;;;11.38;60.66;101337.88;3082336;46;20439;-67
2023/10/15 03:12:33;;;;;;;5.83;1.70;;;9.70;87.70;;;11.36;60.70;101331.97;3082220;46;20537;-68
2023/10/15 03:15:07;;;;;;;5.13;1.73;;;9.70;88.00;;;11.29;60.61;101337.03;3080862;46;20521;-68
2023/10/15 03:17:40;;;;;;;8.33;1.77;;;9.70;87.90;;;11.23;60.88;101331.63;3082222;46;20536;-67
2023/10/15 03:22:46;;;;;;;2.67;1.57;;;9.60;88.20;;;11.16;61.39;101336.72;3082970;46;20530;-68
2023/10/15 03:25:15;;;;;;;6.03;1.57;;;9.60;88.50;;;11.17;61.20;101332.28;3082118;46;20434;-67
2023/10/15 03:27:47;;;;;;;9.30;2.03;;;9.50;88.70;;;11.18;61.39;101318.94;3083003;46;20496;-68
2023/10/15 03:30:23;;;;;;;8.60;2.77;;;9.50;88.90;;;11.20;61.66;101321.41;3081578;46;20494;-68
2023/10/15 03:33:01;;;;;;;4.33;1.70;;;9.50;89.00;;;11.20;61.67;101319.59;3081854;46;20438;-67
2023/10/15 03:35:33;;;;;;;7.30;1.50;;;9.50;89.10;;;11.24;61.75;101322.72;3082509;46;20431;-67
2023/10/15 03:38:13;;;;;;;3.33;1.10;;;9.50;89.40;;;11.22;61.59;101320.25;3082772;46;20447;-67
2023/10/15 03:40:50;;;;;;;2.77;1.20;;;9.60;89.20;;;11.20;61.80;101316.97;3081998;46;20443;-66
2023/10/15 03:43:21;;;;;;;4.10;1.20;;;9.60;89.40;;;11.21;61.75;101317.78;3082571;46;20471;-67
2023/10/15 03:45:52;;;;;;;1.73;1.13;;;9.60;89.10;;;11.20;61.75;101318.75;3082726;46;20443;-66
2023/10/15 03:48:28;;;;;;;3.00;0.90;;;9.60;89.00;;;11.17;61.54;101311.22;3081857;46;21067;-68
2023/10/15 03:50:58;;;;;;;5.03;1.60;;;9.50;88.60;;;11.14;61.61;101316.78;3081188;46;20456;-68
2023/10/15 03:53:28;;;;;;;3.00;1.17;;;9.50;88.60;;;11.11;61.55;101331.13;3080703;46;20571;-65
2023/10/15 03:56:01;;;;;;;2.97;1.27;;;9.50;88.60;;;11.06;61.59;101337.84;3081711;46;21117;-67
2023/10/15 03:58:31;;;;;;;2.20;1.03;;;9.50;88.60;;;11.05;61.61;101333.59;3081036;46;20423;-67
2023/10/15 04:03:48;;;;;;;3.50;1.20;;;9.40;88.80;;;10.99;61.64;101327.16;3082520;46;20457;-69
2023/10/15 04:06:18;;;;;;;1.90;1.10;;;9.40;88.80;;;10.98;61.60;101325.50;3082367;46;21055;-68
2023/10/15 04:09:09;;;;;;;2.93;0.80;;;9.40;88.80;;;10.99;61.87;101318.41;3082277;46;20431;-67
2023/10/15 04:11:42;;;;;;;1.27;0.80;;;9.40;89.20;;;10.97;61.67;101315.97;3082127;46;20538;-67
2023/10/15 04:14:32;;;;;;;3.87;0.90;;;9.30;89.10;;;10.97;61.73;101325.66;3082350;46;20521;-67
2023/10/15 04:17:01;;;;;;;2.43;0.70;;;9.30;89.00;;;10.94;61.93;101321.53;3082911;46;20428;-67
2023/10/15 04:19:30;;;;;;;2.03;1.07;;;9.30;89.00;;;10.91;61.69;101315.78;3081883;46;20439;-65
2023/10/15 04:22:39;;;;;;;2.17;0.67;;;9.30;88.80;;;10.85;61.89;101312.81;3081993;46;20432;-66
2023/10/15 04:24:56;;;;;;;4.20;1.00;;;9.30;88.90;;;10.80;61.83;101315.09;3081594;46;20443;-67
2023/10/15 04:27:27;;;;;;;2.20;0.90;;;9.30;88.90;;;10.79;62.01;101312.66;3082095;46;20483;-69
2023/10/15 04:29:55;;;;;;;2.73;1.00;;;9.20;89.20;;;10.79;62.19;101310.81;3082124;46;20487;-67
2023/10/15 04:32:48;;;;;;;3.63;1.03;;;9.20;89.40;;;10.78;62.12;101301.28;3082015;46;20572;-67
2023/10/15 04:35:18;;;;;;;3.27;1.37;;;9.20;89.50;;;10.79;62.33;101308.19;3081673;46;20923;-67
2023/10/15 04:37:52;;;;;;;1.77;1.00;;;9.20;89.80;;;10.77;62.28;101298.78;3081431;46;20435;-67
2023/10/15 04:40:23;;;;;;;2.20;1.10;;;9.20;89.90;;;10.78;62.33;101303.91;3081473;46;20468;-67
2023/10/15 04:42:52;;;;;;;1.30;1.00;;;9.20;90.00;;;10.79;62.57;101292.38;3082265;46;21016;-65
2023/10/15 04:45:21;;;;;;;6.20;1.27;;;9.20;90.00;;;10.83;62.36;101298.16;3081922;46;20464;-66
2023/10/15 04:47:56;;;;;;;5.30;1.23;;;9.20;89.90;;;10.84;62.32;101295.34;3082141;46;20431;-67
2023/10/15 04:50:29;;;;;;;2.67;0.90;;;9.20;89.80;;;10.88;62.21;101301.97;3080435;46;20458;-67
2023/10/15 04:53:13;;;;;;;4.07;0.90;;;9.20;89.80;;;10.93;62.07;101305.91;3082029;46;21091;-67
2023/10/15 04:55:43;;;;;;;2.27;0.80;;;9.20;89.60;;;10.93;62.00;101296.22;3081634;46;20565;-67
2023/10/15 04:58:13;;;;;;;3.37;1.07;;;9.20;89.30;;;10.96;61.89;101305.59;3082008;46;20511;-67
2023/10/15 05:00:47;;;;;;;2.33;1.00;;;9.20;89.20;;;10.96;61.75;101297.69;3080762;46;21154;-67
2023/10/15 05:03:17;;;;;;;1.70;0.77;;;9.30;89.30;;;11.02;61.65;101297.03;3081665;46;20439;-67
2023/10/15 05:05:45;;;;;;;2.40;0.77;;;9.30;89.00;;;11.04;61.49;101303.78;3081368;46;20454;-68
2023/10/15 05:08:17;;;;;;;1.63;0.70;;;9.40;88.80;;;11.05;61.29;101305.44;3081517;46;20431;-66
2023/10/15 05:10:50;;;;;;;2.73;0.97;;;9.40;88.50;;;11.06;61.32;101309.69;3081955;46;20446;-67
2023/10/15 05:13:20;;;;;;;1.47;0.70;;;9.40;88.20;;;11.07;61.04;101318.44;3083357;46;20432;-67
2023/10/15 05:15:50;;;;;;;3.03;0.60;;;9.40;87.80;;;11.09;60.76;101324.34;3081420;46;20560;-67
2023/10/15 05:18:19;;;;;;;3.37;0.73;;;9.40;87.80;;;11.10;60.73;101337.34;3081624;46;20942;-66
2023/10/15 05:20:50;;;;;;;0.97;0.70;;;9.40;87.40;;;11.09;60.50;101334.91;3082206;46;20543;-67
2023/10/15 05:23:19;;;;;;;0.70;0.60;;;9.40;87.20;;;11.07;60.38;101339.50;3083444;46;20452;-67
2023/10/15 05:25:49;;;;;;;0.87;0.67;;;9.40;87.10;;;11.05;60.44;101338.84;3084867;46;20440;-69
2023/10/15 05:28:18;;;;;;;0.53;0.53;;;9.40;87.20;;;11.04;60.55;101353.81;3084701;46;20451;-69
2023/10/15 05:30:46;;;;;;;2.03;0.70;;;9.40;87.20;;;11.02;60.54;101354.97;3083177;46;20472;-68
2023/10/15 05:33:16;;;;;;;2.67;0.60;;;9.30;87.20;;;10.96;60.45;101366.16;3081116;46;20427;-67
2023/10/15 05:35:49;;;;;;;1.03;0.60;;;9.30;87.40;;;10.92;60.67;101376.19;3081340;46;20427;-67
2023/10/15 05:38:17;;;;;;;2.37;0.73;;;9.30;87.70;;;10.94;61.01;101368.13;3081373;46;20512;-68
2023/10/15 05:40:46;;;;;;;1.47;0.67;;;9.30;88.40;;;11.04;61.55;101368.81;3081146;46;21098;-67
2023/10/15 05:43:16;;;;;;;1.87;0.90;;;9.30;89.20;;;11.13;61.25;101381.00;3080896;46;20457;-67
2023/10/15 05:45:47;;;;;;;3.27;0.97;;;9.40;89.10;;;11.20;61.23;101384.63;3081468;46;20458;-67
2023/10/15 05:48:18;;;;;;;3.07;0.60;;;9.40;89.20;;;11.25;61.19;101377.06;3081006;46;20482;-69
2023/10/15 05:50:49;;;;;;;1.97;0.70;;;9.50;89.20;;;11.29;61.14;101378.41;3081087;46;20479;-67
2023/10/15 05:53:18;;;;;;;3.20;1.10;;;9.50;89.30;;;11.31;61.31;101386.97;3081243;46;20565;-67
2023/10/15 05:55:46;;;;;;;3.30;0.83;;;9.50;89.30;;;11.33;61.42;101379.72;3081034;46;20427;-67
2023/10/15 05:58:15;;;;;;;1.90;0.93;;;9.50;89.50;;;11.35;61.33;101383.00;3081319;46;20431;-66
2023/10/15 06:00:43;;;;;;;2.10;0.50;;;9.50;90.00;;;11.38;61.35;101377.41;3081131;46;20468;-67
2023/10/15 06:03:12;;;;;;;1.57;1.07;;;9.60;89.70;;;11.41;61.37;101377.09;3080695;46;20431;-69
2023/10/15 06:05:40;;;;;;;2.20;1.13;;;9.60;89.70;;;11.42;61.36;101369.03;3081127;46;21079;-68
2023/10/15 06:08:09;;;;;;;1.93;1.07;;;9.60;89.50;;;11.43;61.19;101380.38;3081002;46;20477;-67
2023/10/15 06:10:37;;;;;;;1.33;0.80;;;9.60;89.50;;;11.43;61.19;101380.38;3080664;46;20452;-67
2023/10/15 06:13:06;;;;;;;3.03;0.70;;;9.60;89.50;;;11.44;61.41;101372.31;3080164;46;21385;-67
2023/10/15 06:15:34;;;;;;;1.70;1.03;;;9.60;89.70;;;11.46;61.25;101382.69;3080709;46;21012;-69
2023/10/15 06:18:03;;;;;;;0.97;0.77;;;9.60;89.50;;;11.43;61.14;101397.00;3081084;46;20583;-66
2023/10/15 06:20:31;;;;;;;0.90;0.83;;;9.70;89.50;;;11.39;61.38;101394.88;3080331;46;20583;-67
2023/10/15 06:23:03;;;;;;;2.93;1.00;;;9.70;89.40;;;11.37;61.30;101407.38;3080976;46;20562;-66
2023/10/15 06:25:32;;;;;;;2.13;0.80;;;9.60;89.40;;;11.38;61.71;101414.31;3081172;46;21023;-67
2023/10/15 06:28:02;;;;;;;2.10;1.10;;;9.60;90.00;;;11.43;62.09;101422.56;3080829;46;20507;-65
2023/10/15 06:30:30;;;;;;;3.17;1.00;;;9.60;90.20;;;11.48;61.98;101420.25;3079952;46;20557;-67
2023/10/15 06:32:58;;;;;;;2.27;1.00;;;9.70;90.30;;;11.50;62.07;101405.09;3080831;46;20484;-67
2023/10/15 06:35:27;;;;;;;2.43;0.90;;;9.70;90.30;;;11.54;62.21;101403.78;3080681;46;20448;-67
2023/10/15 06:37:57;;;;;;;2.03;0.80;;;9.70;90.30;;;11.54;61.96;101409.06;3080827;46;20985;-66
2023/10/15 06:40:28;;;;;;;3.30;1.03;;;9.80;90.10;;;11.53;61.73;101407.38;3080035;46;20437;-67
2023/10/15 06:43:03;;;;;;;2.27;1.03;;;9.80;90.00;;;11.50;61.67;101407.75;3080700;46;20438;-67
2023/10/15 06:45:32;;;;;;;2.00;1.07;;;9.70;89.80;;;11.48;61.80;101436.88;3080679;46;21022;-67
2023/10/15 06:48:02;;;;;;;4.50;1.20;;;9.70;90.00;;;11.48;61.80;101436.88;3080590;46;20450;-67
2023/10/15 06:50:30;;;;;;;4.17;1.10;;;9.70;90.10;;;11.49;62.00;101441.19;3080446;46;20475;-67
2023/10/15 06:53:05;;;;;;;5.27;1.37;;;9.70;90.20;;;11.53;62.06;101449.56;3080528;46;21087;-68
2023/10/15 06:55:33;;;;;;;2.13;0.80;;;9.70;90.30;;;11.53;62.00;101449.56;3081011;46;21117;-67
2023/10/15 06:58:02;;;;;;;1.50;0.80;;;9.70;90.30;;;11.56;62.09;101457.16;3080410;46;20432;-65
2023/10/15 07:00:36;;;;;;;1.50;0.83;;;9.70;90.50;;;11.56;62.34;101465.06;3080035;46;20453;-67
2023/10/15 07:03:04;;;;;;;1.40;0.77;;;9.80;90.70;;;11.56;62.30;101462.44;3080648;46;20507;-67
2023/10/15 07:05:33;;;;;;;1.60;1.27;;;9.80;90.60;;;11.56;62.75;101470.34;3080809;46;20452;-67
2023/10/15 07:08:05;;;;;;;2.30;0.80;;;9.80;90.70;;;11.55;62.35;101468.72;3080649;46;20485;-66
2023/10/15 07:10:36;;;;;;;3.30;0.90;;;9.70;90.50;;;11.52;62.31;101474.31;3080514;46;21018;-67
2023/10/15 07:13:05;;;;;;;2.07;0.83;;;9.70;90.40;;;11.51;62.21;101480.53;3081547;46;20456;-68
2023/10/15 07:15:37;;;;;;;1.53;0.90;;;9.70;90.40;;;11.46;62.23;101481.03;3080427;46;20596;-67
2023/10/15 07:18:05;;;;;;;1.57;0.90;;;9.70;90.30;;;11.42;62.30;101470.97;3080346;46;20502;-66
2023/10/15 07:20:34;;;;;;;2.83;0.80;;;9.70;90.30;;;11.38;62.46;101473.13;3079516;46;20443;-67
2023/10/15 07:23:02;;;;;;;0.80;0.60;;;9.70;90.30;;;11.35;62.25;101462.06;3079682;46;20565;-67
2023/10/15 07:25:34;;;;;;;1.23;1.00;;;9.60;90.40;;;11.32;62.26;101465.03;3081353;46;20995;-67
2023/10/15 07:28:04;;;;;;;1.80;0.60;;;9.60;90.20;;;11.29;62.50;101446.91;3083013;46;20542;-69
2023/10/15 07:30:33;;;;;;;1.73;0.70;;;9.60;90.30;;;11.21;62.05;101428.44;3082169;46;20438;-69
2023/10/15 07:33:08;;;;;;;0.67;0.63;;;9.60;90.10;;;11.17;62.18;101435.03;3082896;46;20999;-68
2023/10/15 07:35:37;;;;;;;0.70;0.60;;;9.50;90.00;;;11.14;62.58;101437.97;3081770;46;20459;-68
2023/10/15 07:38:07;;;;;;;1.80;0.67;;;9.50;90.00;;;11.15;62.17;101450.19;3082815;46;20990;-67
2023/10/15 07:40:35;;;;;;;1.10;0.70;;;9.40;90.10;;;11.14;62.36;101454.63;3081982;46;20589;-67
2023/10/15 07:43:08;;;;;;;1.30;0.77;;;9.40;90.10;;;11.15;62.38;101466.00;3082997;46;20969;-68
2023/10/15 07:45:37;;;;;;;1.73;0.60;;;9.40;90.20;;;11.13;62.42;101473.19;3083126;46;20980;-67
2023/10/15 07:48:07;;;;;;;1.50;0.80;;;9.40;90.30;;;11.09;62.25;101472.72;3082535;46;20445;-68
2023/10/15 07:50:36;;;;;;;1.40;0.80;;;9.40;90.30;;;11.14;62.22;101485.41;3082001;46;20442;-67
2023/10/15 07:53:06;;;;;;;1.53;0.60;;;9.40;90.40;;;11.19;62.64;101488.38;3082932;46;20485;-67
2023/10/15 07:55:34;;;;;;;0.93;0.80;;;9.40;90.50;;;11.24;62.28;101489.56;3082175;46;20521;-67
2023/10/15 07:58:03;;;;;;;2.50;1.00;;;9.40;90.50;;;11.29;62.45;101497.00;3082448;46;20447;-67
2023/10/15 08:00:33;;;;;;;1.70;0.70;;;9.40;90.60;;;11.35;62.45;101509.50;3081693;46;21065;-67
2023/10/15 08:03:02;;;;;;;2.30;0.87;;;9.40;90.60;;;11.40;62.38;101517.75;3082354;46;20506;-67
2023/10/15 08:05:31;;;;;;;0.97;0.70;;;9.50;91.00;;;11.47;62.13;101524.03;3082246;46;20525;-67
2023/10/15 08:08:04;;;;;;;0.80;0.63;;;9.50;90.70;;;11.51;62.37;101525.38;3082353;46;20451;-67
2023/10/15 08:10:34;;;;;;;1.37;0.70;;;9.60;90.80;;;11.52;62.10;101537.56;3081811;46;20448;-68
2023/10/15 08:13:08;;;;;;;2.70;0.90;;;9.60;90.70;;;11.50;62.19;101553.53;3082116;46;20432;-65
2023/10/15 08:15:38;;;;;;;1.57;0.50;;;9.60;90.60;;;11.50;62.35;101555.38;3082138;46;20436;-67
2023/10/15 08:18:07;;;;;;;1.80;0.90;;;9.60;90.80;;;11.48;62.31;101557.34;3082323;46;20436;-67
2023/10/15 08:20:35;;;;;;;1.60;0.83;;;9.60;90.80;;;11.43;62.59;101560.44;3081467;46;20462;-67
2023/10/15 08:23:04;;;;;;;1.40;0.70;;;9.60;90.80;;;11.43;62.58;101568.34;3081982;46;20431;-68
2023/10/15 08:25:33;;;;;;;2.23;0.93;;;9.60;91.00;;;11.41;62.93;101570.31;3082371;46;20427;-67
2023/10/15 08:28:03;;;;;;;3.47;0.90;;;9.60;91.10;;;11.41;63.08;101577.41;3082039;46;20444;-67
2023/10/15 08:30:33;;;;;;;1.97;1.20;;;9.60;91.10;;;11.41;63.34;101587.97;3081591;46;20488;-68
2023/10/15 08:33:01;;;;;;;1.60;1.30;;;9.60;91.30;;;11.44;63.45;101592.88;3082256;46;20456;-67
2023/10/15 08:35:30;;;;;;;2.97;1.50;;;9.60;91.40;;;11.46;63.52;101591.75;3082294;46;20433;-67
2023/10/15 08:38:00;;;;;;;1.73;1.50;;;9.60;91.60;;;11.51;63.52;101588.63;3081713;46;20451;-67
2023/10/15 08:40:39;;;;;;;3.40;1.10;;;9.70;91.70;;;11.51;63.61;101562.28;3081263;46;20451;-69
2023/10/15 08:43:15;;;;;;;1.93;0.80;;;9.70;91.40;;;11.49;63.05;101554.53;3082419;46;21056;-66
2023/10/15 08:45:45;;;;;;;1.67;0.90;;;9.70;90.90;;;11.48;62.82;101546.78;3080558;46;20428;-68
2023/10/15 08:48:16;;;;;;;3.27;0.97;;;9.70;90.60;;;11.42;62.28;101547.41;3081425;46;20451;-67
2023/10/15 08:50:47;;;;;;;1.47;0.60;;;9.70;90.00;;;11.35;61.96;101535.88;3081608;46;20482;-67
2023/10/15 08:53:16;;;;;;;1.27;0.70;;;9.70;89.80;;;11.32;62.19;101531.75;3081866;46;20441;-67
2023/10/15 08:55:45;;;;;;;1.50;0.80;;;9.60;89.50;;;11.34;62.04;101528.94;3080875;46;20436;-68
2023/10/15 08:58:15;;;;;;;1.33;0.97;;;9.60;89.70;;;11.39;61.81;101524.00;3081355;46;20566;-67
2023/10/15 09:00:50;;;;;;;1.93;0.77;;;9.60;90.00;;;11.48;62.08;101525.72;3080586;46;20587;-67
2023/10/15 09:03:19;;;;;;;1.30;0.90;;;9.60;90.10;;;11.61;62.09;101526.06;3081756;46;20553;-67
2023/10/15 09:05:52;;;;;;;1.07;0.70;;;9.70;90.40;;;11.75;61.60;101519.34;3081774;46;20514;-67
2023/10/15 09:08:22;;;;;;;1.60;0.70;;;9.70;90.20;;;11.84;61.45;101511.28;3081454;46;20576;-67
2023/10/15 09:10:54;;;;;;;1.27;0.70;;;9.80;90.20;;;11.95;61.31;101540.00;3080498;46;20444;-67
2023/10/15 09:13:25;;;;;;;1.37;0.57;;;9.90;90.20;;;12.05;60.97;101540.63;3081702;46;20453;-67
2023/10/15 09:15:55;;;;;;;2.53;0.90;;;10.00;89.30;;;12.20;60.94;101543.44;3081416;46;20440;-68
2023/10/15 09:18:27;;;;;;;4.77;1.03;;;10.10;89.20;;;12.36;60.79;101542.63;3081123;46;20433;-67
2023/10/15 09:20:59;;;;;;;1.10;0.70;;;10.20;89.20;;;12.53;60.49;101544.25;3081344;46;20573;-68
2023/10/15 09:23:35;;;;;;;1.40;0.70;;;10.30;89.20;;;12.67;60.32;101546.22;3081823;46;20486;-69
2023/10/15 09:26:07;;;;;;;2.13;0.97;;;10.40;88.70;;;12.78;59.64;101561.72;3081059;46;21036;-68
2023/10/15 09:28:36;;;;;;;0.60;0.60;;;10.60;87.90;;;12.83;59.07;101557.59;3081438;46;20508;-67
2023/10/15 09:31:09;;;;;;;0.80;0.80;;;10.60;87.00;;;12.86;58.89;101561.69;3081145;46;20986;-68
2023/10/15 09:33:39;;;;;;;1.83;0.83;;;10.70;86.70;;;12.85;58.76;101571.44;3081281;46;21079;-69
2023/10/15 09:36:08;;;;;;;1.30;0.60;;;10.80;86.10;;;12.83;58.50;101572.59;3080330;46;20444;-69
2023/10/15 09:38:38;;;;;;;1.17;0.90;;;10.80;85.80;;;12.82;58.77;101576.22;3081305;46;20613;-69
2023/10/15 09:41:06;;;;;;;1.13;0.80;;;10.80;86.00;;;12.85;58.77;101581.19;3080951;46;20465;-67
2023/10/15 09:43:37;;;;;;;3.20;1.00;;;10.90;86.20;;;12.92;58.84;101587.44;3081569;46;20455;-67
2023/10/15 09:46:06;;;;;;;1.93;0.70;;;10.90;86.30;;;13.01;58.79;101602.28;3081325;46;21012;-67
2023/10/15 09:48:37;;;;;;;0.77;0.73;;;11.00;86.30;;;13.12;58.46;101601.94;3080206;46;21091;-65
2023/10/15 09:51:07;;;;;;;1.50;0.87;;;11.10;85.90;;;13.19;58.04;101596.81;3080750;46;20452;-69
2023/10/15 09:53:37;;;;;;;0.70;0.70;;;11.20;85.60;;;13.17;57.66;101607.56;3081320;46;20448;-67
2023/10/15 09:56:09;;;;;;;1.10;0.83;;;11.20;85.00;;;13.15;58.11;101616.63;3080886;46;20452;-68
2023/10/15 09:58:38;;;;;;;1.07;0.70;;;11.30;85.20;;;13.18;58.18;101603.94;3080489;46;20438;-68
2023/10/15 10:01:25;;;;;;;1.37;1.00;;;11.30;85.30;;;13.24;58.31;101603.22;3080972;46;20468;-67
2023/10/15 10:04:40;;;;;;;3.43;1.00;;;11.30;85.70;;;13.39;58.54;101620.03;3080772;46;20435;-67
2023/10/15 10:07:31;;;;;;;2.83;0.90;;;11.40;86.30;;;13.56;58.36;101597.81;3080229;46;20443;-68
2023/10/15 10:10:42;;;;;;;2.00;1.00;;;11.50;86.40;;;13.73;58.00;101601.22;3080425;46;20469;-69
2023/10/15 10:13:55;;;;;;;2.07;1.03;;;11.60;86.40;;;13.86;58.25;101598.00;3080078;46;20557;-68
2023/10/15 10:16:27;;;;;;;1.10;1.00;;;11.70;86.10;;;13.96;57.57;101603.88;3079923;46;20940;-69
2023/10/15 10:18:56;;;;;;;1.93;1.10;;;11.80;85.10;;;13.96;57.06;101603.88;3080501;46;21114;-67
2023/10/15 10:21:30;;;;;;;1.77;1.27;;;11.90;83.80;;;13.88;56.16;101599.47;3079783;46;20427;-68
2023/10/15 10:23:59;;;;;;;2.10;0.97;;;11.90;82.80;;;13.82;56.30;101596.69;3080996;46;20447;-70
2023/10/15 10:26:32;;;;;;;2.43;1.27;;;11.90;82.70;;;13.74;56.32;101605.50;3081256;46;20431;-67
2023/10/15 10:29:01;;;;;;;2.43;1.00;;;11.80;82.30;;;13.69;56.43;101607.84;3080552;46;20580;-69
2023/10/15 10:31:30;;;;;;;2.80;1.00;;;11.80;82.60;;;13.65;56.18;101616.28;3080585;46;20471;-67
2023/10/15 10:34:03;;;;;;;2.50;0.90;;;11.80;82.40;;;13.64;56.15;101630.53;3080977;46;20457;-67
2023/10/15 10:36:38;;;;;;;1.00;0.83;;;11.80;82.40;;;13.60;56.28;101623.94;3080878;46;20472;-68
2023/10/15 10:39:13;;;;;;;1.87;0.80;;;11.80;82.40;;;13.61;56.12;101630.88;3080199;46;20565;-68
2023/10/15 10:41:48;;;;;;;4.27;1.40;;;11.80;82.60;;;13.62;56.62;101628.03;3080512;46;20450;-68
2023/10/15 10:44:22;;;;;;;1.30;0.80;;;11.80;82.60;;;13.65;56.25;101626.88;3080826;46;20468;-67
2023/10/15 10:46:56;;;;;;;1.53;0.73;;;11.80;81.50;;;13.71;55.85;101637.59;3080480;46;20431;-68
2023/10/15 10:49:39;;;;;;;2.07;1.00;;;11.90;82.10;;;13.72;55.60;101633.13;3080581;46;21022;-66